createdAt,value
2019-05-22T00:00:53.841Z,1.77
2019-05-22T00:03:26.235Z,1.53
2019-05-22T00:05:56.395Z,2.03
2019-05-22T00:08:26.130Z,3.43
2019-05-22T00:10:57.248Z,2.03
2019-05-22T00:13:30.977Z,1.40
2019-05-22T00:16:01.868Z,1.77
2019-05-22T00:18:31.546Z,1.30
2019-05-22T00:21:01.115Z,2.53
2019-05-22T00:23:32.182Z,1.97
2019-05-22T00:26:00.994Z,2.30
2019-05-22T00:28:30.462Z,2.30
2019-05-22T00:31:00.099Z,1.47
2019-05-22T00:33:31.245Z,1.40
2019-05-22T00:36:02.127Z,2.57
2019-05-22T00:38:31.527Z,1.73
2019-05-22T00:41:07.664Z,5.60
2019-05-22T00:43:44.542Z,1.67
2019-05-22T00:46:16.691Z,1.30
2019-05-22T00:48:47.748Z,1.77
2019-05-22T00:51:47.528Z,1.40
2019-05-22T00:54:30.106Z,1.40
2019-05-22T00:57:16.799Z,2.43
2019-05-22T00:59:46.258Z,2.40
2019-05-22T01:02:18.757Z,1.93
2019-05-22T01:04:49.242Z,1.63
2019-05-22T01:07:18.642Z,1.57
2019-05-22T01:09:50.520Z,3.53
2019-05-22T01:12:32.217Z,2.03
2019-05-22T01:15:07.871Z,2.10
2019-05-22T01:17:38.053Z,1.47
2019-05-22T01:20:10.306Z,2.47
2019-05-22T01:22:41.772Z,1.77
2019-05-22T01:25:11.435Z,3.03
2019-05-22T01:27:41.754Z,1.50
2019-05-22T01:30:15.463Z,1.13
2019-05-22T01:32:47.581Z,2.67
2019-05-22T01:35:18.809Z,1.73
2019-05-22T01:37:47.631Z,1.33
2019-05-22T01:40:27.368Z,1.67
2019-05-22T01:42:58.843Z,3.87
2019-05-22T01:45:27.683Z,1.57
2019-05-22T01:48:05.274Z,1.20
2019-05-22T01:50:52.854Z,1.20
2019-05-22T01:53:23.887Z,1.30
2019-05-22T01:55:58.366Z,4.83
2019-05-22T01:58:29.722Z,1.00
2019-05-22T02:00:59.907Z,2.60
2019-05-22T02:03:30.265Z,0.80
2019-05-22T02:06:00.737Z,2.20
2019-05-22T02:08:30.479Z,0.93
2019-05-22T02:11:01.614Z,3.60
2019-05-22T02:13:35.495Z,0.93
2019-05-22T02:16:08.084Z,0.90
2019-05-22T02:18:37.878Z,0.90
2019-05-22T02:21:06.487Z,1.00
2019-05-22T02:23:35.628Z,1.20
2019-05-22T02:26:07.026Z,1.30
2019-05-22T02:28:36.874Z,3.63
2019-05-22T02:31:07.363Z,1.10
2019-05-22T02:33:55.451Z,2.30
2019-05-22T02:36:24.822Z,3.07
2019-05-22T02:38:54.773Z,1.20
2019-05-22T02:41:25.997Z,0.80
2019-05-22T02:43:55.751Z,1.20
2019-05-22T02:46:24.457Z,1.10
2019-05-22T02:48:55.870Z,1.40
2019-05-22T02:51:24.260Z,1.80
2019-05-22T02:53:54.856Z,3.17
2019-05-22T02:56:28.088Z,1.07
2019-05-22T02:58:57.791Z,1.27
2019-05-22T03:01:26.780Z,1.07
2019-05-22T03:03:55.752Z,1.83
2019-05-22T03:06:24.452Z,1.70
2019-05-22T03:09:31.070Z,2.20
2019-05-22T03:12:03.212Z,4.00
2019-05-22T03:14:34.525Z,1.13
2019-05-22T03:17:05.153Z,2.83
2019-05-22T03:19:38.922Z,1.00
2019-05-22T03:22:23.524Z,1.00
2019-05-22T03:24:53.435Z,2.00
2019-05-22T03:27:36.371Z,1.40
2019-05-22T03:30:10.290Z,1.60
2019-05-22T03:32:43.747Z,1.43
2019-05-22T03:35:12.719Z,3.17
2019-05-22T03:37:42.922Z,1.60
2019-05-22T03:40:12.570Z,1.30
2019-05-22T03:42:41.368Z,3.33
2019-05-22T03:45:11.185Z,2.60
2019-05-22T03:47:42.280Z,2.03
2019-05-22T03:50:11.763Z,1.40
2019-05-22T03:52:40.557Z,1.30
2019-05-22T03:55:11.014Z,2.27
2019-05-22T03:57:39.339Z,1.40
2019-05-22T04:00:10.780Z,3.07
2019-05-22T04:02:40.058Z,3.00
2019-05-22T04:05:09.993Z,5.13
2019-05-22T04:07:39.002Z,5.67
2019-05-22T04:10:10.429Z,5.70
2019-05-22T04:12:40.076Z,5.63
2019-05-22T04:15:10.228Z,1.67
2019-05-22T04:17:39.511Z,2.20
2019-05-22T04:20:09.033Z,3.90
2019-05-22T04:22:38.835Z,7.53
2019-05-22T04:25:09.139Z,3.30
2019-05-22T04:27:37.838Z,6.93
2019-05-22T04:30:08.234Z,1.37
2019-05-22T04:32:39.616Z,1.30
2019-05-22T04:35:11.272Z,4.10
2019-05-22T04:37:40.520Z,1.87
2019-05-22T04:40:46.135Z,3.90
2019-05-22T04:43:20.123Z,9.47
2019-05-22T04:45:47.529Z,6.73
2019-05-22T04:48:17.115Z,1.40
2019-05-22T04:50:46.258Z,1.67
2019-05-22T04:53:15.036Z,8.73
2019-05-22T04:55:43.728Z,1.23
2019-05-22T04:58:14.152Z,1.37
2019-05-22T05:00:43.251Z,2.30
2019-05-22T05:03:12.751Z,2.70
2019-05-22T05:05:43.472Z,1.50
2019-05-22T05:08:14.081Z,1.00
2019-05-22T05:10:43.986Z,4.80
2019-05-22T05:13:13.143Z,2.40
2019-05-22T05:15:41.902Z,1.20
2019-05-22T05:18:10.602Z,0.70
2019-05-22T05:20:39.309Z,1.37
2019-05-22T05:23:08.115Z,0.87
2019-05-22T05:25:37.638Z,1.07
2019-05-22T05:28:08.074Z,0.73
2019-05-22T05:30:36.855Z,0.60
2019-05-22T05:33:06.050Z,5.20
2019-05-22T05:35:35.123Z,1.20
2019-05-22T05:38:05.199Z,0.97
2019-05-22T05:40:40.176Z,1.20
2019-05-22T05:43:15.547Z,1.40
2019-05-22T05:45:46.662Z,4.50
2019-05-22T05:48:25.766Z,1.77
2019-05-22T05:51:25.471Z,0.87
2019-05-22T05:53:59.641Z,1.67
2019-05-22T05:56:30.147Z,5.03
2019-05-22T05:59:00.229Z,1.30
2019-05-22T06:01:32.565Z,8.30
2019-05-22T06:04:01.881Z,1.80
2019-05-22T06:07:15.817Z,1.60
2019-05-22T06:09:44.600Z,4.10
2019-05-22T06:12:14.447Z,2.30
2019-05-22T06:14:43.180Z,5.07
2019-05-22T06:18:02.067Z,2.47
2019-05-22T06:20:31.125Z,2.33
2019-05-22T06:23:49.837Z,2.00
2019-05-22T06:26:54.765Z,2.07
2019-05-22T06:29:27.750Z,2.40
2019-05-22T06:32:40.908Z,2.80
2019-05-22T06:35:09.805Z,14.03
2019-05-22T06:37:45.571Z,2.80
2019-05-22T06:40:14.613Z,3.00
2019-05-22T06:42:48.148Z,5.13
2019-05-22T06:45:17.667Z,6.20
2019-05-22T06:47:46.729Z,3.60
2019-05-22T06:50:15.241Z,3.03
2019-05-22T06:52:44.319Z,11.27
2019-05-22T06:55:13.691Z,3.87
2019-05-22T06:57:42.775Z,4.03
2019-05-22T07:00:17.964Z,4.20
2019-05-22T07:02:46.982Z,6.20
2019-05-22T07:05:16.150Z,3.20
2019-05-22T07:07:45.348Z,2.67
2019-05-22T07:10:14.538Z,4.83
2019-05-22T07:12:50.266Z,2.53
2019-05-22T07:15:36.640Z,2.33
2019-05-22T07:18:07.228Z,10.43
2019-05-22T07:20:37.983Z,2.53
2019-05-22T07:23:07.849Z,3.20
2019-05-22T07:25:37.370Z,2.17
2019-05-22T07:28:08.017Z,3.57
2019-05-22T07:30:37.185Z,2.00
2019-05-22T07:33:06.240Z,1.67
2019-05-22T07:35:56.345Z,3.27
2019-05-22T07:38:05.608Z,1.70
2019-05-22T07:40:35.631Z,1.43
2019-05-22T07:43:05.445Z,2.70
2019-05-22T07:45:35.044Z,1.43
2019-05-22T07:48:04.626Z,1.97
2019-05-22T07:50:36.572Z,1.70
2019-05-22T07:53:06.167Z,2.30
2019-05-22T07:55:34.887Z,1.20
2019-05-22T07:58:11.878Z,1.37
2019-05-22T08:00:43.711Z,1.53
2019-05-22T08:03:13.606Z,1.40
2019-05-22T08:05:42.701Z,15.97
2019-05-22T08:08:11.949Z,6.93
2019-05-22T08:10:42.218Z,14.33
2019-05-22T08:13:11.323Z,3.70
2019-05-22T08:15:40.303Z,5.50
2019-05-22T08:18:09.558Z,6.50
2019-05-22T08:20:38.167Z,7.03
2019-05-22T08:23:09.458Z,3.33
2019-05-22T08:25:38.638Z,2.47
2019-05-22T08:28:08.213Z,2.87
2019-05-22T08:30:37.348Z,3.30
2019-05-22T08:33:08.046Z,2.77
2019-05-22T08:35:37.149Z,1.73
2019-05-22T08:38:07.986Z,2.50
2019-05-22T08:40:36.656Z,4.73
2019-05-22T08:43:05.865Z,2.93
2019-05-22T08:45:35.721Z,4.40
2019-05-22T08:48:05.431Z,2.70
2019-05-22T08:50:34.717Z,13.23
2019-05-22T08:53:03.879Z,4.80
2019-05-22T08:55:34.638Z,5.77
2019-05-22T08:58:04.207Z,2.40
2019-05-22T09:00:33.422Z,10.20
2019-05-22T09:03:02.126Z,2.70
2019-05-22T09:05:31.651Z,3.53
2019-05-22T09:08:00.758Z,1.87
2019-05-22T09:10:30.004Z,7.40
2019-05-22T09:12:59.203Z,1.90
2019-05-22T09:15:28.911Z,2.67
2019-05-22T09:17:58.731Z,7.80
2019-05-22T09:20:27.791Z,2.07
2019-05-22T09:22:57.512Z,1.73
2019-05-22T09:25:26.702Z,2.40
2019-05-22T09:27:56.015Z,2.00
2019-05-22T09:30:25.176Z,1.60
2019-05-22T09:32:56.052Z,1.63
2019-05-22T09:35:25.956Z,3.00
2019-05-22T09:37:55.256Z,2.07
2019-05-22T09:40:24.412Z,12.47
2019-05-22T09:42:53.828Z,2.33
2019-05-22T09:45:22.950Z,2.90
2019-05-22T09:47:51.919Z,2.00
2019-05-22T09:50:23.029Z,2.10
2019-05-22T09:52:57.695Z,2.30
2019-05-22T09:55:23.409Z,1.97
2019-05-22T09:57:52.793Z,1.50
2019-05-22T10:00:22.176Z,2.40
2019-05-22T10:02:51.119Z,1.40
2019-05-22T10:05:21.767Z,1.97
2019-05-22T10:08:00.564Z,2.57
2019-05-22T10:10:21.143Z,2.10
2019-05-22T10:12:50.691Z,3.50
2019-05-22T10:15:21.059Z,3.70
2019-05-22T10:17:50.668Z,7.90
2019-05-22T10:20:20.831Z,3.77
2019-05-22T10:22:50.421Z,5.07
2019-05-22T10:25:19.809Z,5.23
2019-05-22T10:27:49.730Z,10.30
2019-05-22T10:30:19.176Z,3.80
2019-05-22T10:32:48.270Z,3.30
2019-05-22T10:35:18.083Z,3.50
2019-05-22T10:37:47.482Z,4.03
2019-05-22T10:40:16.652Z,3.20
2019-05-22T10:42:46.491Z,3.30
2019-05-22T10:45:15.583Z,5.57
2019-05-22T10:47:45.192Z,5.50
2019-05-22T10:50:14.998Z,6.00
2019-05-22T10:52:43.427Z,4.30
2019-05-22T10:55:13.004Z,4.10
2019-05-22T10:57:43.460Z,3.90
2019-05-22T11:00:15.133Z,4.33
2019-05-22T11:07:21.501Z,8.73
2019-05-22T11:46:23.818Z,7.83
2019-05-22T11:49:19.595Z,4.17
2019-05-22T11:56:32.188Z,12.90
2019-05-22T11:59:42.876Z,6.33
2019-05-22T12:03:08.593Z,2.97
2019-05-22T12:08:57.030Z,3.10
2019-05-22T12:11:25.603Z,3.40
2019-05-22T12:13:54.298Z,4.10
2019-05-22T12:16:23.098Z,11.73
2019-05-22T12:18:52.183Z,7.10
2019-05-22T12:21:20.903Z,5.30
2019-05-22T12:23:49.742Z,6.63
2019-05-22T12:26:18.462Z,5.50
2019-05-22T12:28:47.182Z,6.80
2019-05-22T12:31:15.897Z,5.03
2019-05-22T12:33:44.631Z,4.23
2019-05-22T12:36:13.885Z,5.43
2019-05-22T12:38:43.329Z,3.00
2019-05-22T12:41:14.023Z,4.00
2019-05-22T12:43:44.928Z,4.30
2019-05-22T12:46:13.270Z,4.67
2019-05-22T12:48:42.619Z,3.10
2019-05-22T12:51:11.379Z,5.80
2019-05-22T12:53:39.793Z,16.77
2019-05-22T12:56:08.578Z,2.60
2019-05-22T12:58:40.108Z,2.80
2019-05-22T13:01:15.780Z,4.83
2019-05-22T13:03:44.892Z,3.33
2019-05-22T13:06:13.668Z,3.07
2019-05-22T13:08:42.815Z,2.70
2019-05-22T13:11:12.699Z,3.80
2019-05-22T13:13:41.775Z,3.27
2019-05-22T13:16:10.481Z,3.33
2019-05-22T13:18:39.290Z,6.90
2019-05-22T13:21:09.423Z,3.67
2019-05-22T13:23:39.305Z,6.20
2019-05-22T13:26:08.063Z,3.20
2019-05-22T13:28:37.506Z,4.20
2019-05-22T13:31:07.373Z,8.57
2019-05-22T13:33:37.776Z,5.47
2019-05-22T13:36:06.541Z,3.37
2019-05-22T13:38:35.512Z,4.67
2019-05-22T13:41:04.494Z,4.23
2019-05-22T13:43:33.877Z,4.73
2019-05-22T13:46:02.655Z,8.20
2019-05-22T13:48:31.636Z,4.80
2019-05-22T13:51:00.437Z,5.20
2019-05-22T13:53:29.576Z,14.80
2019-05-22T13:55:58.514Z,3.90
2019-05-22T13:58:27.341Z,5.07
2019-05-22T14:00:56.505Z,3.93
2019-05-22T14:03:25.670Z,5.97
2019-05-22T14:05:55.358Z,4.93
2019-05-22T14:08:23.820Z,5.40
2019-05-22T14:10:52.801Z,6.90
2019-05-22T14:13:21.892Z,6.53
2019-05-22T14:15:56.545Z,5.97
2019-05-22T14:18:20.665Z,7.53
2019-05-22T14:20:49.991Z,3.97
2019-05-22T14:23:19.294Z,3.60
2019-05-22T14:25:49.582Z,3.23
2019-05-22T14:28:19.264Z,3.57
2019-05-22T14:30:49.135Z,4.80
2019-05-22T14:33:18.031Z,5.70
2019-05-22T14:35:49.319Z,7.93
2019-05-22T14:38:17.539Z,5.47
2019-05-22T14:40:45.855Z,3.30
2019-05-22T14:43:14.571Z,4.93
2019-05-22T14:45:43.517Z,3.67
2019-05-22T14:48:12.936Z,6.33
2019-05-22T14:50:42.703Z,10.13
2019-05-22T14:53:11.516Z,10.97
2019-05-22T14:55:40.797Z,5.60
2019-05-22T14:58:09.930Z,6.20
2019-05-22T15:00:38.682Z,5.70
2019-05-22T15:03:07.482Z,5.90
2019-05-22T15:05:36.247Z,14.03
2019-05-22T15:08:06.049Z,8.30
2019-05-22T15:10:35.983Z,10.50
2019-05-22T15:13:05.185Z,14.73
2019-05-22T15:15:33.992Z,15.87
2019-05-22T15:18:03.864Z,11.20
2019-05-22T15:20:37.649Z,10.43
2019-05-22T15:23:06.549Z,14.50
2019-05-22T15:41:26.690Z,15.73
2019-05-22T15:47:52.467Z,26.23
2019-05-22T15:50:06.168Z,23.20
2019-05-22T15:52:35.081Z,19.10
2019-05-22T15:55:07.014Z,21.93
2019-05-22T15:57:37.843Z,21.53
2019-05-22T16:00:08.424Z,16.73
2019-05-22T16:02:38.789Z,16.43
2019-05-22T16:05:07.589Z,17.47
2019-05-22T16:07:37.283Z,17.20
2019-05-22T16:10:06.699Z,15.70
2019-05-22T16:12:35.675Z,15.87
2019-05-22T16:15:06.846Z,14.73
2019-05-22T16:17:36.078Z,16.50
2019-05-22T16:20:04.882Z,14.20
2019-05-22T16:22:33.919Z,19.80
2019-05-22T16:25:03.467Z,13.97
2019-05-22T16:27:32.871Z,16.30
2019-05-22T16:30:02.223Z,19.07
2019-05-22T16:32:31.616Z,26.03
2019-05-22T16:35:00.587Z,38.07
2019-05-22T16:37:28.942Z,26.97
2019-05-22T16:39:57.702Z,22.20
2019-05-22T16:42:27.161Z,17.00
2019-05-22T16:44:55.996Z,15.93
2019-05-22T16:47:24.887Z,15.90
2019-05-22T16:49:54.439Z,16.73
2019-05-22T16:52:24.477Z,15.33
2019-05-22T16:54:53.286Z,19.23
2019-05-22T16:57:21.659Z,17.90
2019-05-22T16:59:51.064Z,19.53
2019-05-22T17:02:20.087Z,21.00
2019-05-22T17:04:49.067Z,21.00
2019-05-22T17:07:18.184Z,19.37
2019-05-22T17:09:48.082Z,21.43
2019-05-22T17:12:18.168Z,18.27
2019-05-22T17:14:47.298Z,21.70
2019-05-22T17:17:17.546Z,20.80
2019-05-22T17:19:45.935Z,20.70
2019-05-22T17:22:16.254Z,19.13
2019-05-22T17:24:45.020Z,23.53
2019-05-22T17:27:15.284Z,21.17
2019-05-22T17:29:45.268Z,20.50
2019-05-22T17:32:14.931Z,21.70
2019-05-22T17:34:43.947Z,26.00
2019-05-22T17:37:15.749Z,19.60
2019-05-22T17:39:45.293Z,20.43
2019-05-22T17:42:15.370Z,23.43
2019-05-22T17:44:45.767Z,21.90
2019-05-22T17:47:14.544Z,25.43
2019-05-22T17:49:43.287Z,26.77
2019-05-22T17:52:12.607Z,25.20
2019-05-22T17:54:41.973Z,28.67
2019-05-22T17:57:11.496Z,31.33
2019-05-22T17:59:40.994Z,31.10
2019-05-22T18:02:11.410Z,31.97
2019-05-22T18:04:40.216Z,37.43
2019-05-22T18:07:09.340Z,38.73
2019-05-22T18:09:38.323Z,32.30
2019-05-22T18:12:09.291Z,30.80
2019-05-22T18:14:38.849Z,33.63
2019-05-22T18:17:07.675Z,33.97
2019-05-22T18:19:36.593Z,41.07
2019-05-22T18:22:06.085Z,40.87
2019-05-22T18:24:34.903Z,38.73
2019-05-22T18:27:03.214Z,48.17
2019-05-22T18:29:31.986Z,40.00
2019-05-22T18:32:01.051Z,39.60
2019-05-22T18:34:29.854Z,41.60
2019-05-22T18:36:58.568Z,51.77
2019-05-22T18:39:27.383Z,47.33
2019-05-22T18:41:55.790Z,48.03
2019-05-22T18:44:24.560Z,49.60
2019-05-22T18:46:53.359Z,49.67
2019-05-22T18:49:22.123Z,55.63
2019-05-22T18:51:50.898Z,59.33
2019-05-22T18:54:19.707Z,54.33
2019-05-22T18:56:48.523Z,64.13
2019-05-22T18:59:17.227Z,55.17
2019-05-22T19:01:46.034Z,57.90
2019-05-22T19:04:14.464Z,63.53
2019-05-22T19:06:43.457Z,59.60
2019-05-22T19:09:14.753Z,80.33
2019-05-22T19:11:43.647Z,50.80
2019-05-22T19:14:12.591Z,51.77
2019-05-22T19:16:41.396Z,46.17
2019-05-22T19:19:11.155Z,54.77
2019-05-22T19:21:45.783Z,57.37
2019-05-22T19:24:15.694Z,113.07
2019-05-22T19:26:44.100Z,93.87
2019-05-22T19:29:13.026Z,96.33
2019-05-22T19:31:41.823Z,88.03
2019-05-22T19:34:13.676Z,77.80
2019-05-22T19:36:42.379Z,77.43
2019-05-22T19:39:11.190Z,62.50
2019-05-22T19:41:42.294Z,64.00
2019-05-22T19:44:11.434Z,51.97
2019-05-22T19:46:40.228Z,57.47
2019-05-22T19:49:09.243Z,59.33
2019-05-22T19:51:39.515Z,59.97
2019-05-22T19:54:09.161Z,61.07
2019-05-22T19:56:39.191Z,67.33
2019-05-22T19:59:08.598Z,60.27
2019-05-22T20:01:37.667Z,67.73
2019-05-22T20:04:06.773Z,66.80
2019-05-22T20:06:38.256Z,59.00
2019-05-22T20:09:08.993Z,58.63
2019-05-22T20:11:37.656Z,58.23
2019-05-22T20:14:06.352Z,61.17
2019-05-22T20:16:35.575Z,54.23
2019-05-22T20:19:04.899Z,61.07
2019-05-22T20:21:34.752Z,68.03
2019-05-22T20:24:04.035Z,60.53
2019-05-22T20:26:32.807Z,59.80
2019-05-22T20:29:01.970Z,55.77
2019-05-22T20:31:31.819Z,56.83
2019-05-22T20:34:00.160Z,52.20
2019-05-22T20:36:31.011Z,51.73
2019-05-22T20:38:59.859Z,50.10
2019-05-22T20:41:30.042Z,60.00
2019-05-22T20:43:59.693Z,64.70
2019-05-22T20:46:30.747Z,61.50
2019-05-22T20:49:00.917Z,52.70
2019-05-22T20:51:30.987Z,65.70
2019-05-22T20:54:01.001Z,62.83
2019-05-22T20:56:29.385Z,70.87
2019-05-22T20:58:59.511Z,57.80
2019-05-22T21:01:28.332Z,62.83
2019-05-22T21:03:57.417Z,80.57
2019-05-22T21:06:26.772Z,61.23
2019-05-22T21:08:57.551Z,63.67
2019-05-22T21:11:27.367Z,70.57
2019-05-22T21:13:56.323Z,67.73
2019-05-22T21:16:26.242Z,60.00
2019-05-22T21:18:57.162Z,72.37
2019-05-22T21:21:26.374Z,65.60
2019-05-22T21:24:09.607Z,72.27
2019-05-22T21:26:26.069Z,78.30
2019-05-22T21:28:55.707Z,71.90
2019-05-22T21:31:25.471Z,70.00
2019-05-22T21:33:55.824Z,71.83
2019-05-22T21:36:25.314Z,70.77
2019-05-22T21:38:53.740Z,75.00
2019-05-22T21:41:23.058Z,79.00
2019-05-22T21:43:52.784Z,76.70
2019-05-22T21:46:21.904Z,84.27
2019-05-22T21:48:53.393Z,76.50
2019-05-22T21:51:24.000Z,82.97
2019-05-22T21:53:54.130Z,66.43
2019-05-22T21:56:23.662Z,78.27
2019-05-22T21:58:52.640Z,65.37
2019-05-22T22:01:31.678Z,71.53
2019-05-22T22:04:20.890Z,77.50
2019-05-22T22:06:50.081Z,66.60
2019-05-22T22:09:20.734Z,65.23
2019-05-22T22:11:49.979Z,66.27
2019-05-22T22:14:19.337Z,70.50
2019-05-22T22:16:55.467Z,67.00
2019-05-22T22:19:23.855Z,61.10
2019-05-22T22:21:54.298Z,66.53
2019-05-22T22:24:24.791Z,52.03
2019-05-22T22:26:56.864Z,58.50
2019-05-22T22:29:26.176Z,63.40
2019-05-22T22:31:59.609Z,62.77
2019-05-22T22:34:44.551Z,53.30
2019-05-22T22:37:14.392Z,58.10
2019-05-22T22:39:47.616Z,56.07
2019-05-22T22:42:18.116Z,53.93
2019-05-22T22:44:49.182Z,56.90
2019-05-22T22:47:22.455Z,58.83
2019-05-22T22:49:52.202Z,60.83
2019-05-22T22:52:20.973Z,52.93
2019-05-22T22:54:51.283Z,52.30
2019-05-22T22:57:20.703Z,50.03
2019-05-22T22:59:50.578Z,56.47
2019-05-22T23:02:28.635Z,48.90
2019-05-22T23:04:57.817Z,48.63
2019-05-22T23:07:26.843Z,46.20
2019-05-22T23:09:58.834Z,47.10
2019-05-22T23:12:28.796Z,44.30
2019-05-22T23:14:57.818Z,48.57
2019-05-22T23:17:31.511Z,46.23
2019-05-22T23:19:59.880Z,45.50
2019-05-22T23:22:32.640Z,47.40
2019-05-22T23:25:03.368Z,49.40
2019-05-22T23:27:33.119Z,52.93
2019-05-22T23:30:02.891Z,49.77
2019-05-22T23:32:33.204Z,49.93
2019-05-22T23:35:03.071Z,55.23
2019-05-22T23:37:31.898Z,45.33
2019-05-22T23:40:01.492Z,61.23
2019-05-22T23:42:43.444Z,49.30
2019-05-22T23:45:16.947Z,49.77
2019-05-22T23:48:02.350Z,50.80
2019-05-22T23:50:32.265Z,47.40
2019-05-22T23:53:05.626Z,52.03
2019-05-22T23:55:35.461Z,53.83
2019-05-22T23:58:05.845Z,50.53
